createdAt,value
2019-05-26T00:01:54.941Z,3.43
2019-05-26T00:04:23.886Z,2.83
2019-05-26T00:06:52.788Z,3.53
2019-05-26T00:09:21.749Z,3.10
2019-05-26T00:11:50.635Z,3.17
2019-05-26T00:14:19.552Z,3.10
2019-05-26T00:16:48.456Z,3.57
2019-05-26T00:19:17.357Z,3.20
2019-05-26T00:21:46.316Z,3.00
2019-05-26T00:24:15.208Z,2.90
2019-05-26T00:26:44.151Z,3.80
2019-05-26T00:29:13.047Z,3.63
2019-05-26T00:31:41.996Z,3.60
2019-05-26T00:34:10.915Z,3.70
2019-05-26T00:36:39.833Z,3.20
2019-05-26T00:39:08.721Z,3.33
2019-05-26T00:41:37.657Z,3.00
2019-05-26T00:44:06.540Z,3.27
2019-05-26T00:46:35.473Z,3.17
2019-05-26T00:49:04.976Z,3.67
2019-05-26T00:51:33.911Z,3.07
2019-05-26T00:54:02.806Z,2.90
2019-05-26T00:56:31.738Z,3.70
2019-05-26T00:59:00.834Z,3.43
2019-05-26T01:01:29.775Z,3.10
2019-05-26T01:03:58.661Z,2.77
2019-05-26T01:06:27.587Z,3.07
2019-05-26T01:08:56.486Z,3.60
2019-05-26T01:11:25.414Z,3.13
2019-05-26T01:13:54.304Z,3.33
2019-05-26T01:16:23.266Z,3.50
2019-05-26T01:18:52.165Z,3.27
2019-05-26T01:21:21.233Z,3.30
2019-05-26T01:23:50.130Z,3.83
2019-05-26T01:26:19.021Z,3.27
2019-05-26T01:28:47.950Z,4.37
2019-05-26T01:31:16.851Z,3.60
2019-05-26T01:33:45.795Z,3.80
2019-05-26T01:36:14.690Z,4.57
2019-05-26T01:38:43.916Z,3.63
2019-05-26T01:41:12.810Z,3.83
2019-05-26T01:43:41.752Z,3.50
2019-05-26T01:46:10.655Z,4.30
2019-05-26T01:48:39.579Z,3.53
2019-05-26T01:51:08.496Z,3.70
2019-05-26T01:53:37.427Z,3.27
2019-05-26T01:56:06.314Z,3.53
2019-05-26T01:58:35.595Z,4.07
2019-05-26T02:01:04.511Z,4.07
2019-05-26T02:03:33.468Z,3.33
2019-05-26T02:06:02.343Z,3.90
2019-05-26T02:08:39.526Z,3.60
2019-05-26T02:11:01.827Z,3.53
2019-05-26T02:13:30.770Z,3.30
2019-05-26T02:15:59.659Z,3.27
2019-05-26T02:18:28.600Z,2.80
2019-05-26T02:20:57.535Z,3.30
2019-05-26T02:23:26.541Z,3.10
2019-05-26T02:25:55.422Z,3.20
2019-05-26T02:28:24.363Z,3.30
2019-05-26T02:30:53.270Z,3.73
2019-05-26T02:33:22.211Z,3.37
2019-05-26T02:35:51.098Z,3.73
2019-05-26T02:38:20.054Z,4.13
2019-05-26T02:40:49.055Z,3.63
2019-05-26T02:43:17.994Z,3.80
2019-05-26T02:45:46.886Z,3.80
2019-05-26T02:48:15.834Z,4.47
2019-05-26T02:50:44.739Z,3.93
2019-05-26T02:53:13.640Z,4.70
2019-05-26T02:55:42.582Z,4.67
2019-05-26T02:58:11.485Z,5.07
2019-05-26T03:00:45.945Z,5.27
2019-05-26T03:03:16.822Z,5.03
2019-05-26T03:05:46.353Z,5.17
2019-05-26T03:08:16.094Z,4.97
2019-05-26T03:10:44.935Z,5.30
2019-05-26T03:13:15.951Z,5.57
2019-05-26T03:15:46.411Z,6.20
2019-05-26T03:18:15.695Z,6.00
2019-05-26T03:20:45.624Z,6.23
2019-05-26T03:23:16.738Z,5.60
2019-05-26T03:25:45.667Z,5.47
2019-05-26T03:28:14.566Z,5.73
2019-05-26T03:30:43.515Z,5.97
2019-05-26T03:33:12.429Z,6.13
2019-05-26T03:35:41.458Z,5.90
2019-05-26T03:38:10.351Z,5.60
2019-05-26T03:40:39.293Z,6.57
2019-05-26T03:43:08.201Z,6.23
2019-05-26T03:45:43.056Z,6.20
2019-05-26T03:48:11.950Z,6.10
2019-05-26T03:50:40.929Z,6.47
2019-05-26T03:53:09.908Z,6.80
2019-05-26T03:55:39.206Z,5.83
2019-05-26T03:58:08.099Z,6.77
2019-05-26T04:00:37.047Z,5.53
2019-05-26T04:03:06.046Z,6.23
2019-05-26T04:05:35.005Z,5.67
2019-05-26T04:08:05.332Z,6.17
2019-05-26T04:10:34.638Z,5.83
2019-05-26T04:13:03.531Z,5.83
2019-05-26T04:15:32.468Z,5.33
2019-05-26T04:18:01.370Z,5.80
2019-05-26T04:20:30.316Z,6.57
2019-05-26T04:22:59.556Z,5.50
2019-05-26T04:25:28.607Z,6.27
2019-05-26T04:27:57.891Z,6.40
2019-05-26T04:30:26.830Z,6.03
2019-05-26T04:32:55.830Z,5.93
2019-05-26T04:35:26.077Z,5.87
2019-05-26T04:38:14.378Z,6.33
2019-05-26T04:40:43.364Z,5.90
2019-05-26T04:43:15.031Z,5.70
2019-05-26T04:45:43.360Z,5.67
2019-05-26T04:48:12.366Z,5.77
2019-05-26T04:50:41.342Z,5.07
2019-05-26T04:53:10.360Z,5.77
2019-05-26T04:55:39.384Z,5.43
2019-05-26T04:58:09.772Z,6.00
2019-05-26T05:00:38.727Z,5.00
2019-05-26T05:03:07.750Z,6.27
2019-05-26T05:05:36.710Z,5.53
2019-05-26T05:08:05.729Z,6.73
2019-05-26T05:10:42.447Z,5.53
2019-05-26T05:13:05.229Z,5.80
2019-05-26T05:15:39.422Z,5.63
2019-05-26T05:18:09.831Z,5.30
2019-05-26T05:20:38.749Z,5.10
2019-05-26T05:23:07.665Z,5.80
2019-05-26T05:25:36.589Z,5.60
2019-05-26T05:28:05.509Z,5.73
2019-05-26T05:30:34.420Z,5.90
2019-05-26T05:33:03.367Z,5.10
2019-05-26T05:35:32.259Z,4.97
2019-05-26T05:38:01.200Z,5.53
2019-05-26T05:40:30.107Z,5.83
2019-05-26T05:42:59.065Z,5.60
2019-05-26T05:45:28.323Z,6.40
2019-05-26T05:47:57.259Z,5.60
2019-05-26T05:50:26.166Z,6.23
2019-05-26T05:52:55.118Z,5.70
2019-05-26T05:55:24.009Z,6.60
2019-05-26T05:57:54.729Z,5.83
2019-05-26T06:00:23.653Z,5.53
2019-05-26T06:02:52.585Z,5.97
2019-05-26T06:05:21.601Z,5.97
2019-05-26T06:07:50.550Z,5.97
2019-05-26T06:10:20.451Z,5.90
2019-05-26T06:12:50.687Z,6.60
2019-05-26T06:15:25.866Z,7.10
2019-05-26T06:17:55.226Z,6.80
2019-05-26T06:20:24.200Z,6.57
2019-05-26T06:22:55.176Z,6.23
2019-05-26T06:25:24.654Z,6.57
2019-05-26T06:27:58.299Z,6.30
2019-05-26T06:30:29.111Z,6.27
2019-05-26T06:33:02.177Z,6.00
2019-05-26T06:35:33.190Z,6.90
2019-05-26T06:38:08.092Z,6.57
2019-05-26T06:40:39.567Z,6.77
2019-05-26T06:43:11.450Z,6.70
2019-05-26T06:45:40.836Z,6.70
2019-05-26T06:48:15.621Z,6.60
2019-05-26T06:50:46.230Z,6.77
2019-05-26T06:53:18.151Z,6.30
2019-05-26T06:55:49.363Z,7.13
2019-05-26T06:58:18.992Z,6.93
2019-05-26T07:00:48.922Z,7.20
2019-05-26T07:03:17.825Z,6.90
2019-05-26T07:05:46.958Z,7.40
2019-05-26T07:08:15.909Z,6.33
2019-05-26T07:10:46.201Z,7.20
2019-05-26T07:13:15.095Z,7.40
2019-05-26T07:15:44.052Z,7.17
2019-05-26T07:18:12.959Z,7.07
2019-05-26T07:20:42.498Z,7.40
2019-05-26T07:23:11.595Z,8.40
2019-05-26T07:25:40.548Z,7.80
2019-05-26T07:28:09.451Z,8.10
2019-05-26T07:30:41.838Z,8.13
2019-05-26T07:33:12.070Z,8.70
2019-05-26T07:35:41.016Z,7.67
2019-05-26T07:38:09.909Z,8.40
2019-05-26T07:40:38.849Z,8.03
2019-05-26T07:43:07.746Z,8.50
2019-05-26T07:45:36.692Z,7.97
2019-05-26T07:48:05.701Z,7.97
2019-05-26T07:50:34.631Z,7.77
2019-05-26T07:53:03.537Z,8.40
2019-05-26T07:55:32.968Z,8.07
2019-05-26T07:58:02.135Z,8.40
2019-05-26T08:00:31.118Z,8.13
2019-05-26T08:03:00.116Z,8.23
2019-05-26T08:05:30.931Z,8.10
2019-05-26T08:08:12.284Z,7.57
2019-05-26T08:10:30.661Z,8.17
2019-05-26T08:12:59.562Z,8.13
2019-05-26T08:15:29.582Z,8.30
2019-05-26T08:17:58.577Z,7.80
2019-05-26T08:20:27.635Z,7.50
2019-05-26T08:22:56.540Z,24.50
2019-05-26T08:25:25.489Z,64.07
2019-05-26T08:28:01.265Z,13.83
2019-05-26T08:30:34.348Z,7.67
2019-05-26T08:33:14.283Z,7.10
2019-05-26T08:35:52.756Z,5.93
2019-05-26T08:41:16.588Z,6.70
2019-05-26T08:43:47.321Z,5.60
2019-05-26T08:46:19.964Z,5.60
2019-05-26T08:48:52.848Z,5.67
2019-05-26T08:54:17.813Z,4.83
2019-05-26T08:56:51.833Z,4.73
2019-05-26T08:59:26.985Z,4.73
2019-05-26T09:01:59.525Z,4.67
2019-05-26T09:04:32.532Z,4.13
2019-05-26T09:07:08.067Z,3.30
2019-05-26T09:09:42.333Z,3.27
2019-05-26T09:12:14.577Z,3.20
2019-05-26T09:14:45.445Z,3.13
2019-05-26T09:17:16.961Z,2.60
2019-05-26T09:19:51.687Z,2.20
2019-05-26T09:22:25.328Z,2.27
2019-05-26T09:25:01.746Z,1.80
2019-05-26T09:27:36.158Z,2.20
2019-05-26T09:30:16.809Z,2.17
2019-05-26T09:32:49.643Z,2.40
2019-05-26T09:35:23.279Z,1.70
2019-05-26T09:37:52.396Z,1.90
2019-05-26T09:40:22.010Z,1.80
2019-05-26T09:42:50.926Z,1.47
2019-05-26T09:45:22.462Z,1.43
2019-05-26T09:47:51.522Z,1.20
2019-05-26T09:50:20.527Z,1.20
2019-05-26T09:52:49.469Z,1.40
2019-05-26T09:55:18.664Z,1.10
2019-05-26T09:57:47.639Z,1.20
2019-05-26T10:00:17.395Z,0.93
2019-05-26T10:02:46.348Z,0.90
2019-05-26T10:05:15.382Z,0.73
2019-05-26T10:07:44.286Z,0.80
2019-05-26T10:10:13.323Z,0.90
2019-05-26T10:12:42.245Z,0.80
2019-05-26T10:15:11.377Z,0.90
2019-05-26T10:17:40.274Z,1.00
2019-05-26T10:20:10.313Z,1.10
2019-05-26T10:22:40.134Z,1.00
2019-05-26T10:25:09.561Z,1.10
2019-05-26T10:27:38.454Z,1.03
2019-05-26T10:30:12.809Z,1.20
2019-05-26T10:32:41.824Z,1.20
2019-05-26T10:35:10.962Z,1.10
2019-05-26T10:37:39.863Z,1.20
2019-05-26T10:40:10.410Z,1.47
2019-05-26T10:42:39.309Z,1.20
2019-05-26T10:45:10.242Z,1.20
2019-05-26T10:47:39.246Z,1.47
2019-05-26T10:50:09.788Z,1.20
2019-05-26T10:52:38.755Z,1.20
2019-05-26T10:55:08.067Z,1.27
2019-05-26T10:57:36.996Z,1.30
2019-05-26T11:00:11.248Z,1.60
2019-05-26T11:02:40.183Z,1.40
2019-05-26T11:05:09.425Z,1.60
2019-05-26T11:07:38.324Z,1.40
2019-05-26T11:10:08.492Z,1.70
2019-05-26T11:12:37.418Z,1.80
2019-05-26T11:15:08.800Z,1.93
2019-05-26T11:17:37.685Z,2.30
2019-05-26T11:20:09.860Z,2.37
2019-05-26T11:22:38.761Z,2.20
2019-05-26T11:25:08.202Z,3.27
2019-05-26T11:27:37.096Z,2.50
2019-05-26T11:30:11.069Z,2.60
2019-05-26T11:32:39.968Z,2.40
2019-05-26T11:35:09.108Z,2.77
2019-05-26T11:37:38.008Z,2.40
2019-05-26T11:40:07.515Z,2.20
2019-05-26T11:42:36.445Z,2.07
2019-05-26T11:45:09.025Z,1.90
2019-05-26T11:47:38.290Z,1.80
2019-05-26T11:50:11.657Z,1.60
2019-05-26T11:52:40.662Z,1.30
2019-05-26T11:55:09.760Z,1.40
2019-05-26T11:57:38.693Z,1.60
2019-05-26T12:00:09.475Z,1.27
2019-05-26T12:02:39.160Z,1.40
2019-05-26T12:05:08.358Z,1.40
2019-05-26T12:07:37.292Z,1.40
2019-05-26T12:10:07.495Z,1.40
2019-05-26T12:12:36.529Z,1.13
2019-05-26T12:15:08.115Z,1.37
2019-05-26T12:17:37.157Z,1.60
2019-05-26T12:20:07.364Z,1.70
2019-05-26T12:22:36.328Z,1.63
2019-05-26T12:25:07.121Z,1.83
2019-05-26T12:27:36.072Z,1.70
2019-05-26T12:30:07.631Z,1.70
2019-05-26T12:32:36.548Z,2.00
2019-05-26T12:35:10.380Z,2.13
2019-05-26T12:37:39.479Z,2.10
2019-05-26T12:40:08.880Z,2.20
2019-05-26T12:42:37.826Z,2.47
2019-05-26T12:45:08.519Z,2.23
2019-05-26T12:47:37.487Z,2.60
2019-05-26T12:50:08.213Z,2.90
2019-05-26T12:52:37.369Z,2.80
2019-05-26T12:55:09.338Z,2.87
2019-05-26T12:57:37.461Z,2.90
2019-05-26T13:00:10.290Z,3.40
2019-05-26T13:02:39.232Z,3.20
2019-05-26T13:05:08.725Z,3.63
2019-05-26T13:07:37.770Z,3.70
2019-05-26T13:10:10.870Z,3.40
2019-05-26T13:12:39.807Z,3.33
2019-05-26T13:15:10.791Z,3.60
2019-05-26T13:17:40.044Z,3.30
2019-05-26T13:20:09.732Z,3.37
2019-05-26T13:22:39.153Z,3.63
2019-05-26T13:25:10.324Z,3.37
2019-05-26T13:27:39.226Z,3.67
2019-05-26T13:30:13.897Z,3.43
2019-05-26T13:32:42.793Z,3.47
2019-05-26T13:35:12.038Z,3.50
2019-05-26T13:37:41.029Z,3.63
2019-05-26T13:40:11.620Z,3.90
2019-05-26T13:42:40.520Z,3.43
2019-05-26T13:45:21.661Z,3.43
2019-05-26T13:47:42.099Z,3.30
2019-05-26T13:50:11.746Z,3.50
2019-05-26T13:52:40.635Z,3.13
2019-05-26T13:55:10.199Z,2.43
2019-05-26T13:57:39.175Z,2.20
2019-05-26T14:00:15.711Z,2.40
2019-05-26T14:02:44.741Z,2.50
2019-05-26T14:05:13.779Z,2.27
2019-05-26T14:07:42.698Z,2.40
2019-05-26T14:10:12.328Z,2.10
2019-05-26T14:12:41.234Z,1.80
2019-05-26T14:15:13.174Z,1.70
2019-05-26T14:17:42.972Z,1.40
2019-05-26T14:20:12.621Z,1.20
2019-05-26T14:22:41.529Z,1.10
2019-05-26T14:25:10.665Z,1.30
2019-05-26T14:27:39.580Z,0.80
2019-05-26T14:30:09.123Z,0.90
2019-05-26T14:32:38.015Z,1.20
2019-05-26T14:35:07.662Z,0.73
2019-05-26T14:37:37.161Z,0.70
2019-05-26T14:40:09.531Z,0.60
2019-05-26T14:42:39.069Z,0.70
2019-05-26T14:45:09.058Z,0.70
2019-05-26T14:47:37.954Z,0.87
2019-05-26T14:50:09.495Z,0.60
2019-05-26T14:52:38.565Z,0.60
2019-05-26T14:55:07.898Z,0.60
2019-05-26T14:57:36.796Z,0.60
2019-05-26T15:00:08.341Z,0.77
2019-05-26T15:02:37.310Z,0.50
2019-05-26T15:05:07.441Z,0.70
2019-05-26T15:07:37.678Z,0.80
2019-05-26T15:10:08.563Z,0.90
2019-05-26T15:12:37.506Z,1.00
2019-05-26T15:15:07.102Z,1.40
2019-05-26T15:17:36.370Z,1.90
2019-05-26T15:20:07.207Z,2.27
2019-05-26T15:22:36.244Z,2.77
2019-05-26T15:25:09.956Z,3.20
2019-05-26T15:27:38.990Z,3.50
2019-05-26T15:30:09.299Z,3.80
2019-05-26T15:32:38.236Z,3.80
2019-05-26T15:35:11.418Z,3.70
2019-05-26T15:37:40.408Z,4.33
2019-05-26T15:40:09.404Z,4.20
2019-05-26T15:42:38.347Z,4.40
2019-05-26T15:45:08.438Z,4.20
2019-05-26T15:47:37.375Z,4.73
2019-05-26T15:50:12.793Z,4.77
2019-05-26T15:52:40.061Z,4.30
2019-05-26T15:55:10.905Z,4.90
2019-05-26T15:57:39.846Z,4.67
2019-05-26T16:00:09.332Z,5.43
2019-05-26T16:02:38.393Z,4.93
2019-05-26T16:05:07.801Z,4.70
2019-05-26T16:07:36.748Z,5.00
2019-05-26T16:10:08.908Z,5.43
2019-05-26T16:12:37.791Z,5.53
2019-05-26T16:15:10.517Z,5.90
2019-05-26T16:17:39.442Z,5.97
2019-05-26T16:20:09.685Z,6.17
2019-05-26T16:22:38.623Z,6.13
2019-05-26T16:25:07.884Z,6.63
2019-05-26T16:27:36.802Z,6.40
2019-05-26T16:30:09.653Z,6.60
2019-05-26T16:32:38.553Z,6.77
2019-05-26T16:35:08.080Z,6.40
2019-05-26T16:37:37.333Z,6.10
2019-05-26T16:40:07.794Z,5.77
2019-05-26T16:42:36.994Z,6.13
2019-05-26T16:45:07.378Z,5.83
2019-05-26T16:47:36.289Z,5.53
2019-05-26T16:50:07.774Z,5.50
2019-05-26T16:52:36.692Z,5.80
2019-05-26T16:55:06.831Z,5.37
2019-05-26T16:57:35.723Z,5.80
2019-05-26T17:00:06.799Z,5.93
2019-05-26T17:02:35.733Z,5.57
2019-05-26T17:05:06.770Z,5.63
2019-05-26T17:07:35.675Z,5.20
2019-05-26T17:10:09.298Z,5.13
2019-05-26T17:12:38.236Z,4.77
2019-05-26T17:15:09.215Z,4.53
2019-05-26T17:17:38.148Z,3.67
2019-05-26T17:20:08.737Z,4.00
2019-05-26T17:22:38.643Z,3.10
2019-05-26T17:25:08.117Z,3.20
2019-05-26T17:27:37.170Z,2.50
2019-05-26T17:30:07.528Z,2.17
2019-05-26T17:32:36.449Z,2.77
2019-05-26T17:35:07.382Z,2.00
2019-05-26T17:37:36.278Z,2.63
2019-05-26T17:40:06.579Z,2.13
2019-05-26T17:42:35.557Z,1.73
2019-05-26T17:45:06.449Z,1.97
2019-05-26T17:47:35.377Z,2.13
2019-05-26T17:50:06.286Z,2.57
2019-05-26T17:52:35.728Z,2.10
2019-05-26T17:55:07.631Z,2.50
2019-05-26T17:57:37.276Z,2.37
2019-05-26T18:00:11.524Z,2.13
2019-05-26T18:02:40.578Z,1.87
2019-05-26T18:05:09.783Z,1.87
2019-05-26T18:07:38.880Z,1.83
2019-05-26T18:10:08.089Z,2.07
2019-05-26T18:12:37.032Z,2.43
2019-05-26T18:15:07.938Z,2.00
2019-05-26T18:17:46.367Z,2.03
2019-05-26T18:20:08.246Z,2.10
2019-05-26T18:22:37.258Z,1.90
2019-05-26T18:25:08.193Z,2.10
2019-05-26T18:27:37.152Z,2.30
2019-05-26T18:30:09.803Z,2.53
2019-05-26T18:32:38.825Z,2.80
2019-05-26T18:35:08.109Z,10.93
2019-05-26T18:37:37.055Z,4.40
2019-05-26T18:40:09.276Z,3.77
2019-05-26T18:42:38.256Z,4.23
2019-05-26T18:45:07.645Z,4.67
2019-05-26T18:47:37.255Z,5.23
2019-05-26T18:50:09.077Z,5.70
2019-05-26T18:52:40.802Z,5.63
2019-05-26T18:55:12.914Z,6.30
2019-05-26T18:57:44.752Z,6.13
2019-05-26T19:00:16.759Z,5.70
2019-05-26T19:02:50.121Z,6.57
2019-05-26T19:05:32.846Z,6.33
2019-05-26T19:07:59.297Z,6.53
2019-05-26T19:10:32.259Z,6.43
2019-05-26T19:13:10.786Z,7.00
2019-05-26T19:15:49.630Z,6.90
2019-05-26T19:18:25.820Z,6.37
2019-05-26T19:21:04.407Z,7.23
2019-05-26T19:23:36.891Z,7.73
2019-05-26T19:26:21.202Z,8.23
2019-05-26T19:28:57.931Z,7.90
2019-05-26T19:31:36.838Z,8.10
2019-05-26T19:34:11.466Z,8.17
2019-05-26T19:36:48.737Z,8.27
2019-05-26T19:39:20.496Z,8.30
2019-05-26T19:45:06.047Z,7.60
2019-05-26T19:47:51.735Z,8.00
2019-05-26T19:50:26.256Z,7.43
2019-05-26T19:53:04.560Z,8.20
2019-05-26T19:55:40.499Z,8.33
2019-05-26T19:58:15.038Z,7.37
2019-05-26T20:00:55.997Z,6.53
2019-05-26T20:03:35.529Z,7.40
2019-05-26T20:06:23.268Z,7.13
2019-05-26T20:08:58.377Z,5.20
2019-05-26T20:11:48.922Z,7.43
2019-05-26T20:14:22.767Z,5.30
2019-05-26T20:16:54.329Z,4.87
2019-05-26T20:19:28.656Z,4.90
2019-05-26T20:22:01.565Z,3.97
2019-05-26T20:27:27.271Z,3.70
2019-05-26T20:30:03.659Z,3.37
2019-05-26T20:32:48.197Z,3.10
2019-05-26T20:35:28.290Z,2.53
2019-05-26T20:38:03.553Z,2.33
2019-05-26T20:40:39.821Z,2.10
2019-05-26T20:43:12.273Z,2.00
2019-05-26T20:45:44.439Z,1.90
2019-05-26T20:48:21.624Z,1.93
2019-05-26T20:50:54.209Z,1.77
2019-05-26T20:53:28.959Z,1.60
2019-05-26T20:56:04.536Z,1.70
2019-05-26T20:58:37.901Z,1.70
2019-05-26T21:01:12.879Z,1.57
2019-05-26T21:03:45.227Z,1.60
2019-05-26T21:06:17.585Z,1.73
2019-05-26T21:08:48.288Z,1.70
2019-05-26T21:11:18.987Z,2.20
2019-05-26T21:13:52.242Z,2.33
2019-05-26T21:16:36.210Z,2.73
2019-05-26T21:19:10.514Z,3.00
2019-05-26T21:21:53.389Z,3.10
2019-05-26T21:24:27.466Z,2.80
2019-05-26T21:26:57.318Z,2.87
2019-05-26T21:29:30.688Z,2.70
2019-05-26T21:32:01.996Z,3.63
2019-05-26T21:34:32.075Z,3.43
2019-05-26T21:37:06.746Z,3.80
2019-05-26T21:39:38.732Z,5.90
2019-05-26T21:42:15.668Z,5.97
2019-05-26T21:44:46.841Z,5.90
2019-05-26T21:47:17.246Z,6.77
2019-05-26T21:49:47.614Z,6.07
2019-05-26T21:52:17.973Z,7.10
2019-05-26T21:54:47.670Z,6.90
2019-05-26T21:57:25.213Z,7.63
2019-05-26T21:59:55.232Z,9.43
2019-05-26T22:02:26.478Z,10.50
2019-05-26T22:04:58.269Z,10.97
2019-05-26T22:07:29.368Z,11.80
2019-05-26T22:10:02.172Z,11.07
2019-05-26T22:12:33.511Z,11.53
2019-05-26T22:15:03.709Z,12.27
2019-05-26T22:17:35.581Z,13.03
2019-05-26T22:20:07.699Z,13.00
2019-05-26T22:22:39.544Z,12.37
2019-05-26T22:25:13.768Z,14.03
2019-05-26T22:27:43.677Z,14.43
2019-05-26T22:30:14.435Z,13.90
2019-05-26T22:32:44.108Z,14.50
2019-05-26T22:35:18.298Z,14.63
2019-05-26T22:37:50.232Z,13.57
2019-05-26T22:40:20.316Z,12.43
2019-05-26T22:42:51.323Z,13.53
2019-05-26T22:45:23.389Z,11.93
2019-05-26T22:47:53.476Z,13.33
2019-05-26T22:50:24.837Z,11.37
2019-05-26T22:53:00.103Z,12.83
2019-05-26T22:55:29.708Z,11.93
2019-05-26T22:57:59.884Z,11.87
2019-05-26T23:00:30.085Z,11.07
2019-05-26T23:03:01.585Z,10.93
2019-05-26T23:05:34.143Z,10.50
2019-05-26T23:08:08.088Z,9.70
2019-05-26T23:10:38.007Z,11.37
2019-05-26T23:13:07.815Z,9.13
2019-05-26T23:15:37.622Z,10.00
2019-05-26T23:18:07.822Z,8.97
2019-05-26T23:20:37.288Z,9.67
2019-05-26T23:23:07.510Z,9.90
2019-05-26T23:25:37.406Z,8.97
2019-05-26T23:28:07.036Z,9.43
2019-05-26T23:30:36.774Z,8.93
2019-05-26T23:33:07.895Z,9.87
2019-05-26T23:35:38.078Z,8.83
2019-05-26T23:38:15.348Z,9.00
2019-05-26T23:40:47.231Z,8.80
2019-05-26T23:43:16.577Z,8.43
2019-05-26T23:45:47.943Z,7.77
2019-05-26T23:48:17.629Z,8.50
2019-05-26T23:50:47.244Z,7.50
2019-05-26T23:53:16.837Z,7.80
2019-05-26T23:55:47.667Z,7.70
2019-05-26T23:58:18.734Z,7.87
